Terminal Aerodrome Forecast
Issued by NWS Greer, SC

Home | Current Version | Previous Version | Text Only | Print | Product List | Glossary On
Versions: 1 2 3 4 5 6 7 8 9 10 11 12 13 14 15 16 17 18 19 20 21 22 23 24 25 26 27 28 29 30 31 32 33 34 35 36 37 38 39 40 41 42 43 44 45 46 47 48 49 50
000
FTUS42 KGSP 181911 AAA
TAFGSP
TAF AMD
KGSP 181911Z 1819/1918 25008KT P6SM VCTS SCT060CB BKN250
      TEMPO 1819/1822 VRB20G35KT 2SM +TSRA BKN025CB
     FM190000 26006KT P6SM BKN050
     FM190500 27003KT P6SM SCT050 BKN250
     FM191000 34003KT P6SM BKN250
     FM191600 30003KT P6SM SCT060 BKN250=

USA.gov is the U.S. government's official web portal to all federal, state and local government web resources and services.